Time;durP1;ratioP1;P1;durP2;ratioP2;P2;SDS_P1;SDS_P2;PMS_P1;PMS_P2;Temp;Humidity;BMP_temperature;BMP_pressure;BME280_temperature;BME280_humidity;BME280_pressure;Samples;Min_cycle;Max_cycle;Signal;HPM_P1;HPM_P2
2022/10/03 00:01:12;;;;;;;12.85;2.53;;;;;;;9.78;97.92;101056.50;5003356;28;20548;-78
2022/10/03 00:04:11;;;;;;;10.73;2.50;;;;;;;9.65;98.68;101065.47;5014248;28;20068;-78
2022/10/03 00:06:46;;;;;;;26.80;7.00;;;;;;;9.61;98.57;101069.94;4989314;28;20046;-78
2022/10/03 00:09:11;;;;;;;10.93;2.45;;;;;;;9.67;98.61;101067.88;5014540;28;20072;-78
2022/10/03 00:11:42;;;;;;;6.87;2.03;;;;;;;9.55;99.17;101071.13;5014470;28;20026;-78
2022/10/03 00:14:38;;;;;;;9.05;2.53;;;;;;;9.61;98.65;101073.44;5014047;28;20092;-78
2022/10/03 00:17:23;;;;;;;13.80;2.80;;;;;;;9.47;100.00;101080.00;5010807;28;20025;-78
2022/10/03 00:20:14;;;;;;;9.25;2.33;;;;;;;9.50;99.35;101074.75;5013973;28;20022;-78
2022/10/03 00:22:51;;;;;;;7.45;2.78;;;;;;;9.43;100.00;101079.00;4996295;28;20034;-78
2022/10/03 00:25:29;;;;;;;9.10;3.38;;;;;;;9.37;100.00;101078.28;5013839;28;20026;-78
2022/10/03 00:28:16;;;;;;;5.35;1.83;;;;;;;9.40;100.00;101085.03;5013655;28;20066;-78
2022/10/03 00:31:00;;;;;;;6.55;2.65;;;;;;;9.53;99.91;101084.22;5014068;28;20022;-77
2022/10/03 00:33:47;;;;;;;10.52;2.78;;;;;;;9.31;100.00;101080.31;4995005;28;20041;-78
2022/10/03 00:36:21;;;;;;;;;;;;;;;9.27;100.00;101082.03;5014016;28;20026;-78
2022/10/03 00:39:20;;;;;;;4.85;2.08;;;;;;;9.54;100.00;101086.63;5013642;28;19916;-78
2022/10/03 00:42:14;;;;;;;10.13;2.92;;;;;;;9.34;100.00;101090.56;5013827;28;20076;-78
2022/10/03 00:44:45;;;;;;;10.02;2.58;;;;;;;9.21;100.00;101090.56;5013865;28;20021;-78
2022/10/03 00:47:25;;;;;;;8.35;2.97;;;;;;;9.17;100.00;101101.25;5013153;28;20045;-78
2022/10/03 00:50:11;;;;;;;11.63;3.03;;;;;;;9.12;100.00;101093.19;5013538;28;20025;-78
2022/10/03 00:52:54;;;;;;;6.82;2.80;;;;;;;9.07;100.00;101096.03;5013352;28;20478;-78
2022/10/03 00:55:33;;;;;;;8.82;2.38;;;;;;;9.20;100.00;101097.91;5013161;28;20033;-78
2022/10/03 00:58:17;;;;;;;13.57;2.58;;;;;;;9.09;100.00;101107.41;5013539;28;20032;-78
2022/10/03 01:00:50;;;;;;;7.03;2.42;;;;;;;9.16;100.00;101107.78;5014002;28;20539;-78
2022/10/03 01:03:37;;;;;;;11.38;2.88;;;;;;;9.16;100.00;101113.22;5013297;28;20467;-78
2022/10/03 01:06:34;;;;;;;6.03;2.50;;;;;;;9.24;100.00;101120.69;5013017;28;20050;-79
2022/10/03 01:09:06;;;;;;;18.60;5.43;;;;;;;9.09;100.00;101112.03;5013158;28;20022;-79
2022/10/03 01:12:00;;;;;;;10.05;2.20;;;;;;;9.29;100.00;101109.72;5013304;28;20437;-79
2022/10/03 01:14:57;;;;;;;10.45;3.08;;;;;;;9.28;100.00;101110.81;4992530;28;20034;-80
2022/10/03 01:17:31;;;;;;;14.32;3.85;;;;;;;9.24;100.00;101112.53;5012866;28;20036;-79
2022/10/03 01:19:59;;;;;;;11.57;2.25;;;;;;;9.10;100.00;101111.72;5013036;28;20025;-80
2022/10/03 01:22:45;;;;;;;8.98;3.05;;;;;;;9.08;100.00;101113.13;5013098;28;20031;-80
2022/10/03 01:25:15;;;;;;;11.63;2.80;;;;;;;9.07;100.00;101115.03;4995520;28;20029;-80
2022/10/03 01:31:21;;;;;;;10.23;3.25;;;;;;;9.24;100.00;101109.03;4933271;29;20031;-80
2022/10/03 01:34:24;;;;;;;5.28;2.50;;;;;;;9.08;100.00;101107.69;5000501;28;20038;-80
2022/10/03 01:37:01;;;;;;;12.27;3.70;;;;;;;9.03;100.00;101114.81;5013066;28;20033;-80
2022/10/03 01:39:30;;;;;;;6.15;2.67;;;;;;;9.05;100.00;101114.50;5012829;28;20514;-80
2022/10/03 01:42:13;;;;;;;9.30;2.35;;;;;;;9.07;100.00;101115.03;4995194;28;20041;-80
2022/10/03 01:45:12;;;;;;;8.77;3.03;;;;;;;9.10;100.00;101111.72;4994859;28;20096;-80
2022/10/03 01:47:50;;;;;;;12.07;2.50;;;;;;;8.96;100.00;101111.69;4994975;28;20029;-80
2022/10/03 01:50:22;;;;;;;11.70;3.10;;;;;;;9.03;100.00;101117.53;4995060;28;20495;-80
2022/10/03 01:52:57;;;;;;;7.60;2.63;;;;;;;8.94;100.00;101116.63;5012547;28;20038;-80
2022/10/03 01:56:02;;;;;;;7.05;2.58;;;;;;;8.86;100.00;101120.00;4994718;28;20371;-80
2022/10/03 01:58:47;;;;;;;6.47;2.80;;;;;;;8.83;100.00;101131.47;5012531;28;20105;-80
2022/10/03 02:01:42;;;;;;;16.02;3.38;;;;;;;8.82;100.00;101129.88;5012473;28;20047;-80
2022/10/03 02:04:26;;;;;;;6.22;3.05;;;;;;;8.95;100.00;101133.72;5011319;28;20034;-79
2022/10/03 02:07:04;;;;;;;6.72;2.90;;;;;;;8.85;100.00;101139.31;5012281;28;20042;-81
2022/10/03 02:10:07;;;;;;;8.05;3.55;;;;;;;8.96;100.00;101135.34;4994291;28;20068;-82
2022/10/03 02:12:57;;;;;;;9.60;2.97;;;;;;;8.83;100.00;101141.53;5012564;28;20022;-80
2022/10/03 02:15:41;;;;;;;16.85;3.83;;;;;;;8.77;100.00;101137.31;5011763;28;20114;-80
2022/10/03 02:18:18;;;;;;;11.23;2.88;;;;;;;8.76;100.00;101152.00;5012481;28;20026;-79
2022/10/03 02:21:14;;;;;;;13.32;3.15;;;;;;;9.02;100.00;101145.81;4994844;28;20032;-80
2022/10/03 02:23:43;;;;;;;6.82;2.72;;;;;;;8.84;100.00;101143.16;4998360;28;20049;-80
2022/10/03 02:26:44;;;;;;;8.77;3.03;;;;;;;8.87;100.00;101147.97;4994607;28;20032;-80
2022/10/03 02:29:10;;;;;;;18.02;3.47;;;;;;;8.94;100.00;101154.66;4994626;28;20041;-80
2022/10/03 02:31:58;;;;;;;;;;;;;;;9.00;100.00;101149.94;4994813;28;20092;-81
2022/10/03 02:34:29;;;;;;;13.82;3.95;;;;;;;8.86;100.00;101149.88;5012457;28;19961;-79
2022/10/03 02:37:01;;;;;;;8.57;2.55;;;;;;;8.79;100.00;101154.09;4994696;28;20034;-80
2022/10/03 02:40:08;;;;;;;6.85;3.05;;;;;;;8.74;100.00;101153.09;4994451;28;20471;-80
2022/10/03 02:42:56;;;;;;;10.45;4.13;;;;;;;8.89;100.00;101153.91;4991678;28;20071;-79
2022/10/03 02:45:43;;;;;;;9.18;3.10;;;;;;;8.88;100.00;101163.97;5012225;28;20026;-81
2022/10/03 02:48:48;;;;;;;7.53;2.88;;;;;;;8.86;100.00;101146.38;5011733;28;20034;-80
2022/10/03 02:51:32;;;;;;;9.43;2.85;;;;;;;8.88;100.00;101155.81;5011591;28;20041;-81
2022/10/03 02:54:29;;;;;;;9.93;3.42;;;;;;;9.01;100.00;101155.06;5011890;28;20034;-80
2022/10/03 02:57:04;;;;;;;9.82;2.67;;;;;;;8.86;100.00;101160.75;4997095;28;20022;-81
2022/10/03 02:59:55;;;;;;;10.65;3.25;;;;;;;8.90;100.00;101164.50;4997899;28;20026;-79
2022/10/03 03:02:41;;;;;;;13.75;3.90;;;;;;;8.73;100.00;101162.34;5015500;28;20029;-81
2022/10/03 03:05:20;;;;;;;8.07;2.67;;;;;;;8.64;100.00;101168.72;4997667;28;20026;-80
2022/10/03 03:08:01;;;;;;;8.93;3.38;;;;;;;8.55;100.00;101168.59;5010397;28;20058;-80
2022/10/03 03:10:44;;;;;;;7.95;2.90;;;;;;;8.53;100.00;101165.38;5015410;28;20037;-81
2022/10/03 03:13:49;;;;;;;8.73;2.80;;;;;;;8.49;100.00;101169.78;5014973;28;20538;-81
2022/10/03 03:16:39;;;;;;;5.25;2.40;;;;;;;8.48;100.00;101170.88;5014236;28;20088;-81
2022/10/03 03:19:23;;;;;;;10.10;4.57;;;;;;;8.52;100.00;101176.53;5015064;28;20113;-80
2022/10/03 03:21:54;;;;;;;9.57;3.67;;;;;;;8.50;100.00;101170.59;5015251;28;20046;-80
2022/10/03 03:24:48;;;;;;;10.07;3.50;;;;;;;8.44;100.00;101170.66;5015252;28;20122;-80
2022/10/03 03:27:38;;;;;;;9.48;3.05;;;;;;;8.46;100.00;101170.38;4997190;28;20028;-80
2022/10/03 03:30:09;;;;;;;7.30;3.50;;;;;;;8.46;100.00;101175.00;4997171;28;20022;-81
2022/10/03 03:33:10;;;;;;;11.20;3.15;;;;;;;8.47;100.00;101174.69;5015127;28;20053;-79
2022/10/03 03:35:51;;;;;;;9.48;3.78;;;;;;;8.38;100.00;101171.81;4997246;28;20087;-81
2022/10/03 03:38:22;;;;;;;10.00;3.95;;;;;;;8.38;100.00;101174.53;4997538;28;20183;-80
2022/10/03 03:41:03;;;;;;;11.63;3.72;;;;;;;8.36;100.00;101175.94;5015201;28;20022;-80
2022/10/03 03:44:06;;;;;;;10.82;3.33;;;;;;;8.37;100.00;101174.84;5013561;28;20056;-80
2022/10/03 03:47:03;;;;;;;8.27;3.50;;;;;;;8.34;100.00;101175.44;4997235;28;20030;-81
2022/10/03 03:49:58;;;;;;;6.35;2.80;;;;;;;8.45;100.00;101168.75;5014796;28;20038;-81
2022/10/03 03:52:56;;;;;;;;;;;;;;;;;;;;;
2022/10/03 03:56:02;;;;;;;10.35;3.38;;;;;;;8.41;100.00;101184.84;5009607;28;20042;-80
2022/10/03 03:58:52;;;;;;;11.77;4.03;;;;;;;8.37;100.00;101181.06;5014518;28;20049;-81
2022/10/03 04:01:38;;;;;;;12.52;3.83;;;;;;;8.37;100.00;101182.97;4996657;28;20194;-79
2022/10/03 04:04:08;;;;;;;9.45;3.30;;;;;;;8.37;100.00;101180.25;5014468;28;20029;-78
2022/10/03 04:07:32;;;;;;;10.57;3.45;;;;;;;8.37;100.00;101182.97;5013802;28;20133;-77
2022/10/03 04:10:16;;;;;;;14.77;3.92;;;;;;;8.37;100.00;101193.84;4923562;29;20539;-78
2022/10/03 04:13:00;;;;;;;13.50;3.60;;;;;;;8.43;100.00;101190.78;5012984;28;20033;-79
2022/10/03 04:15:45;;;;;;;17.13;4.47;;;;;;;8.67;100.00;101182.53;5014491;28;20096;-78
2022/10/03 04:21:38;;;;;;;10.80;4.45;;;;;;;8.70;100.00;101195.50;5014269;28;20378;-79
2022/10/03 04:24:42;;;;;;;9.60;3.80;;;;;;;8.60;100.00;101192.16;4996279;28;20025;-77
2022/10/03 04:27:45;;;;;;;8.90;3.63;;;;;;;8.51;100.00;101193.91;5013832;28;20029;-78
2022/10/03 04:30:22;;;;;;;10.93;4.70;;;;;;;8.46;100.00;101196.72;5013740;28;20029;-78
2022/10/03 04:32:47;;;;;;;7.57;3.33;;;;;;;8.48;100.00;101195.31;4995943;28;20026;-79
2022/10/03 04:35:31;;;;;;;10.93;4.13;;;;;;;8.48;100.00;101195.31;5013658;28;20105;-77
2022/10/03 04:38:15;;;;;;;10.48;3.35;;;;;;;8.49;100.00;101196.13;4995897;28;20042;-78
2022/10/03 04:41:17;;;;;;;11.98;3.97;;;;;;;8.52;100.00;101185.47;4995968;28;20026;-78
2022/10/03 04:44:03;;;;;;;14.02;4.20;;;;;;;8.53;100.00;101186.28;4996029;28;20021;-80
2022/10/03 04:46:42;;;;;;;10.82;3.10;;;;;;;8.51;100.00;101194.72;5013635;28;20026;-79
2022/10/03 04:49:30;;;;;;;11.00;3.47;;;;;;;8.54;100.00;101196.84;5013671;28;20079;-78
2022/10/03 04:51:59;;;;;;;9.00;3.47;;;;;;;8.55;100.00;101195.72;4995796;28;20535;-79
2022/10/03 04:54:43;;;;;;;9.55;3.38;;;;;;;8.54;100.00;101199.56;4995593;28;20026;-79
2022/10/03 04:57:19;;;;;;;10.93;4.35;;;;;;;8.54;100.00;101204.97;4995553;28;20048;-79
2022/10/03 05:00:12;;;;;;;8.63;3.80;;;;;;;8.54;100.00;101198.75;5013300;28;20103;-79
2022/10/03 05:02:57;;;;;;;9.93;3.35;;;;;;;8.55;100.00;101200.34;5013263;28;20053;-79
2022/10/03 05:05:49;;;;;;;21.15;4.53;;;;;;;8.52;100.00;101198.22;4995417;28;20022;-80
2022/10/03 05:08:59;;;;;;;9.30;3.90;;;;;;;8.54;100.00;101204.16;5012061;28;20041;-79
2022/10/03 05:11:47;;;;;;;14.80;3.80;;;;;;;8.61;100.00;101201.91;4987142;28;20038;-79
2022/10/03 05:14:44;;;;;;;13.52;4.18;;;;;;;8.56;100.00;101199.25;5012763;28;20030;-79
2022/10/03 05:17:41;;;;;;;9.57;3.67;;;;;;;8.52;100.00;101195.53;5013050;28;20390;-78
2022/10/03 05:20:32;;;;;;;10.63;3.78;;;;;;;8.53;100.00;101195.22;5012956;28;20033;-79
2022/10/03 05:23:13;;;;;;;13.98;3.88;;;;;;;8.52;100.00;101192.81;4984717;28;20037;-79
2022/10/03 05:26:00;;;;;;;9.95;3.80;;;;;;;8.52;100.00;101204.47;4994836;28;20040;-79
2022/10/03 05:28:28;;;;;;;7.95;4.00;;;;;;;8.50;100.00;101200.44;5012940;28;20553;-79
2022/10/03 05:31:07;;;;;;;16.08;4.15;;;;;;;8.54;100.00;101204.97;4995262;28;20030;-80
2022/10/03 05:33:42;;;;;;;15.65;4.47;;;;;;;8.61;100.00;101204.63;5013226;28;20113;-79
2022/10/03 05:36:24;;;;;;;13.10;4.45;;;;;;;8.89;100.00;101210.94;5012761;28;20435;-79
2022/10/03 05:39:39;;;;;;;8.48;3.63;;;;;;;9.05;100.00;101215.03;5012715;28;20087;-81
2022/10/03 05:42:33;;;;;;;8.60;3.90;;;;;;;8.84;100.00;101219.19;5012707;28;20474;-82
2022/10/03 05:45:22;;;;;;;10.80;3.80;;;;;;;8.89;100.00;101208.25;5012371;28;20594;-83
2022/10/03 05:47:54;;;;;;;8.50;3.67;;;;;;;9.01;100.00;101216.75;4994886;28;20054;-82
2022/10/03 05:50:57;;;;;;;12.32;4.40;;;;;;;8.92;100.00;101215.81;4995062;28;20033;-82
2022/10/03 05:53:34;;;;;;;12.27;4.30;;;;;;;8.95;100.00;101224.19;4993731;28;20479;-83
2022/10/03 05:56:22;;;;;;;11.95;4.00;;;;;;;9.05;100.00;101226.69;5012553;28;20425;-84
2022/10/03 05:59:09;;;;;;;11.88;3.38;;;;;;;8.95;100.00;101232.31;5012352;28;20482;-83
2022/10/03 06:01:56;;;;;;;;;;;;;;;8.89;100.00;101238.91;4992617;28;20044;-83
2022/10/03 06:04:43;;;;;;;12.00;3.72;;;;;;;8.94;100.00;101249.72;5012453;28;19916;-83
2022/10/03 06:07:22;;;;;;;9.95;3.70;;;;;;;8.94;100.00;101252.44;5012253;28;20104;-81
2022/10/03 06:10:08;;;;;;;12.38;3.50;;;;;;;8.93;100.00;101250.03;4994856;28;20088;-79
2022/10/03 06:13:04;;;;;;;8.20;3.95;;;;;;;8.90;100.00;101253.31;5012404;28;20032;-78
2022/10/03 06:15:44;;;;;;;16.80;4.45;;;;;;;8.91;100.00;101255.75;5012629;28;20038;-79
2022/10/03 06:18:36;;;;;;;8.23;3.92;;;;;;;9.09;100.00;101253.31;5012235;28;20031;-80
2022/10/03 06:21:20;;;;;;;7.80;3.22;;;;;;;9.09;100.00;101251.41;4994152;28;20129;-80
2022/10/03 06:24:24;;;;;;;8.35;4.15;;;;;;;8.98;100.00;101252.66;4994556;28;20044;-80
2022/10/03 06:27:23;;;;;;;9.32;3.53;;;;;;;8.98;100.00;101253.47;4994031;28;20037;-80
2022/10/03 06:30:10;;;;;;;10.43;3.78;;;;;;;8.97;100.00;101251.03;4996000;28;20026;-80
2022/10/03 06:33:07;;;;;;;9.48;3.65;;;;;;;9.03;100.00;101255.28;5016059;28;20095;-80
2022/10/03 06:36:05;;;;;;;9.38;4.30;;;;;;;9.04;100.00;101248.75;5016101;28;20030;-79
2022/10/03 06:39:08;;;;;;;7.82;3.60;;;;;;;9.00;100.00;101251.25;4998138;28;20060;-78
2022/10/03 06:42:05;;;;;;;10.82;4.22;;;;;;;9.08;100.00;101244.34;5015535;28;20478;-78
2022/10/03 06:45:19;;;;;;;10.70;3.75;;;;;;;9.11;100.00;101254.63;4998593;28;20113;-80
2022/10/03 06:48:03;;;;;;;7.95;4.25;;;;;;;9.18;100.00;101249.59;4998268;28;20156;-80
2022/10/03 06:50:42;;;;;;;11.20;3.95;;;;;;;9.25;100.00;101251.94;5016056;28;20026;-80
2022/10/03 06:53:35;;;;;;;11.20;3.70;;;;;;;9.16;100.00;101257.25;4998183;28;20040;-80
2022/10/03 06:56:03;;;;;;;8.10;3.80;;;;;;;9.12;100.00;101258.94;5015537;28;20036;-79
2022/10/03 06:58:55;;;;;;;8.40;3.60;;;;;;;9.11;100.00;101259.25;5015762;28;20038;-79
2022/10/03 07:02:05;;;;;;;11.48;3.97;;;;;;;9.28;100.00;101275.81;5016082;28;20068;-80
2022/10/03 07:04:57;;;;;;;13.52;4.15;;;;;;;9.46;100.00;101274.13;4946463;28;20508;-81
2022/10/03 07:07:56;;;;;;;15.02;4.82;;;;;;;9.60;100.00;101275.78;5007218;28;20050;-81
2022/10/03 07:10:49;;;;;;;9.75;3.25;;;;;;;9.48;100.00;101278.16;4997831;28;20436;-81
2022/10/03 07:13:27;;;;;;;8.18;3.70;;;;;;;9.41;100.00;101275.03;4997713;28;20055;-81
2022/10/03 07:16:30;;;;;;;13.90;3.67;;;;;;;9.38;100.00;101282.97;5015447;28;20037;-82
2022/10/03 07:19:46;;;;;;;11.77;3.17;;;;;;;9.47;100.00;101278.47;5015100;28;20501;-81
2022/10/03 07:22:25;;;;;;;7.30;3.47;;;;;;;9.50;100.00;101288.75;4997556;28;20036;-81
2022/10/03 07:25:24;;;;;;;9.32;3.67;;;;;;;9.67;100.00;101288.97;5015234;28;20072;-81
2022/10/03 07:28:20;;;;;;;8.88;4.00;;;;;;;9.80;100.00;101285.47;5015444;28;20034;-80
2022/10/03 07:30:53;;;;;;;10.35;4.38;;;;;;;9.91;100.00;101288.81;4997067;28;20080;-81
2022/10/03 07:34:11;;;;;;;10.13;3.50;;;;;;;9.97;100.00;101290.31;5015004;28;20034;-80
2022/10/03 07:40:24;;;;;;;14.32;4.22;;;;;;;10.21;100.00;101290.94;5015149;28;20045;-81
2022/10/03 07:42:58;;;;;;;8.77;3.60;;;;;;;10.06;100.00;101302.09;4996773;28;20037;-80
2022/10/03 07:45:51;;;;;;;11.60;3.60;;;;;;;10.05;100.00;101299.69;4997350;28;20060;-79
2022/10/03 07:48:52;;;;;;;7.20;3.15;;;;;;;10.03;100.00;101307.34;5014824;28;20033;-79
2022/10/03 07:51:23;;;;;;;14.77;3.45;;;;;;;10.18;100.00;101310.56;4996365;28;20061;-79
2022/10/03 07:54:00;;;;;;;6.85;2.80;;;;;;;10.30;100.00;101317.47;5014661;28;20026;-78
2022/10/03 07:56:48;;;;;;;6.80;3.05;;;;;;;10.26;100.00;101314.56;5014693;28;20462;-79
2022/10/03 07:59:37;;;;;;;9.95;3.33;;;;;;;10.16;100.00;101311.97;5014665;28;20022;-78
2022/10/03 08:02:32;;;;;;;9.43;3.60;;;;;;;10.19;100.00;101319.53;5014428;28;20037;-79
2022/10/03 08:04:58;;;;;;;8.23;2.95;;;;;;;10.31;100.00;101321.78;5014328;28;20048;-79
2022/10/03 08:07:51;;;;;;;;;;;;;;;10.42;100.00;101328.66;4996969;28;20124;-80
2022/10/03 08:10:36;;;;;;;9.57;3.63;;;;;;;10.67;100.00;101325.38;5014195;28;20000;-79
2022/10/03 08:13:40;;;;;;;7.05;3.05;;;;;;;10.98;98.94;101322.78;5014362;28;20366;-78
2022/10/03 08:19:05;;;;;;;10.15;3.42;;;;;;;10.80;99.54;101318.28;2978843;23;20057;-79
2022/10/03 08:22:15;;;;;;;8.38;3.03;;;;;;;10.81;99.57;101328.06;4996645;28;20334;-78
2022/10/03 08:25:06;;;;;;;11.48;3.60;;;;;;;10.88;98.73;101331.16;4995144;28;20037;-80
2022/10/03 08:27:37;;;;;;;8.75;2.40;;;;;;;10.89;99.33;101330.06;4996971;28;20026;-79
2022/10/03 08:30:08;;;;;;;6.63;2.67;;;;;;;11.04;99.41;101326.19;5013840;28;20117;-80
2022/10/03 08:32:57;;;;;;;7.65;3.45;;;;;;;11.11;98.68;101335.56;4996248;28;20025;-79
2022/10/03 08:35:56;;;;;;;7.20;2.65;;;;;;;11.17;98.33;101340.88;4996153;28;20036;-79
2022/10/03 08:38:53;;;;;;;6.55;2.83;;;;;;;11.36;97.84;101341.50;4996305;28;20037;-79
2022/10/03 08:41:56;;;;;;;12.83;3.23;;;;;;;11.52;98.09;101337.28;5013464;28;20049;-77
2022/10/03 08:44:30;;;;;;;8.70;2.40;;;;;;;11.86;94.65;101336.72;4995662;28;20022;-77
2022/10/03 08:47:02;;;;;;;15.20;3.72;;;;;;;11.90;93.86;101342.34;5013328;28;20109;-77
2022/10/03 08:50:05;;;;;;;7.82;3.10;;;;;;;11.95;94.49;101336.75;5013401;28;20026;-76
2022/10/03 08:52:42;;;;;;;8.50;2.50;;;;;;;11.86;94.28;101336.72;5013142;28;20090;-78
2022/10/03 08:55:41;;;;;;;6.70;2.40;;;;;;;12.06;93.29;101343.53;5012758;28;20489;-78
2022/10/03 08:58:26;;;;;;;8.95;2.85;;;;;;;12.22;93.91;101344.72;5013407;28;20042;-78
2022/10/03 09:01:29;;;;;;;7.97;2.63;;;;;;;12.45;91.40;101333.72;4995556;28;20118;-78
2022/10/03 09:04:13;;;;;;;6.70;2.92;;;;;;;12.36;92.97;101339.16;5013463;28;20030;-79
2022/10/03 09:07:28;;;;;;;7.53;2.67;;;;;;;12.60;92.41;101333.28;4995525;28;20064;-78
2022/10/03 09:10:05;;;;;;;8.82;2.08;;;;;;;12.82;89.88;101324.94;4947410;28;20045;-78
2022/10/03 09:12:55;;;;;;;8.95;2.38;;;;;;;12.75;89.16;101327.34;5013089;28;20029;-79
2022/10/03 09:15:58;;;;;;;5.10;1.95;;;;;;;12.89;90.39;101328.00;5013354;28;20026;-78
2022/10/03 09:18:58;;;;;;;8.63;2.15;;;;;;;13.14;88.11;101331.06;5000446;28;20041;-78
2022/10/03 09:21:47;;;;;;;5.20;2.03;;;;;;;13.28;87.17;101329.00;5013024;28;20018;-79
2022/10/03 09:24:40;;;;;;;4.82;1.92;;;;;;;13.13;89.18;101326.72;5012836;28;20030;-77
2022/10/03 09:27:46;;;;;;;6.70;2.08;;;;;;;13.39;86.45;101335.72;5013053;28;20101;-80
2022/10/03 09:30:49;;;;;;;6.72;1.90;;;;;;;13.13;87.13;101333.00;5015712;28;20037;-92
2022/10/03 09:33:38;;;;;;;6.63;1.75;;;;;;;13.45;85.85;101339.94;5017005;28;20026;-89
2022/10/03 09:36:11;;;;;;;4.70;1.80;;;;;;;13.62;85.24;101338.28;5016295;28;20025;-89
2022/10/03 09:38:55;;;;;;;11.75;2.78;;;;;;;13.40;86.08;101336.53;5018007;28;20021;-89
2022/10/03 09:41:38;;;;;;;7.82;1.98;;;;;;;13.57;86.02;101335.72;5016575;28;20167;-90
2022/10/03 09:44:44;;;;;;;9.30;2.05;;;;;;;13.57;86.42;101335.72;5018667;28;20022;-89
2022/10/03 09:47:42;;;;;;;8.00;2.10;;;;;;;13.69;85.18;101325.69;5014652;28;20030;-83
2022/10/03 09:50:10;;;;;;;7.10;1.83;;;;;;;13.87;83.46;101322.91;5016047;28;20482;-90
2022/10/03 09:53:13;;;;;;;4.93;1.75;;;;;;;13.93;84.03;101318.84;5014393;28;20033;-92
2022/10/03 09:56:00;;;;;;;11.02;3.58;;;;;;;13.57;86.32;101316.56;5015010;28;20022;-91
2022/10/03 09:59:05;;;;;;;11.85;2.35;;;;;;;13.57;83.77;101313.81;5014289;28;20034;-93
2022/10/03 10:01:44;;;;;;;6.28;1.67;;;;;;;13.50;83.63;101315.13;5003931;28;20486;-92
2022/10/03 10:04:57;;;;;;;10.27;2.28;;;;;;;13.57;81.08;101311.06;5014901;28;20052;-91
2022/10/03 10:07:51;;;;;;;3.03;1.23;;;;;;;13.56;81.87;101310.28;5013265;28;20133;-92
2022/10/03 10:10:37;;;;;;;5.53;1.05;;;;;;;13.73;80.91;101302.00;5020568;28;20045;-88
2022/10/03 10:13:18;;;;;;;6.50;1.17;;;;;;;13.88;82.23;101308.91;5018561;28;20044;-88
2022/10/03 10:16:24;;;;;;;7.72;1.55;;;;;;;14.04;79.96;101301.75;5017433;28;20113;-89
2022/10/03 10:18:59;;;;;;;5.20;1.17;;;;;;;13.94;79.20;101304.03;5011035;28;20054;-92
2022/10/03 10:21:53;;;;;;;3.33;1.05;;;;;;;13.98;80.35;101294.84;5001621;28;20032;-90
2022/10/03 10:24:51;;;;;;;5.20;1.02;;;;;;;14.41;78.08;101294.59;5018157;28;20042;-87
2022/10/03 10:28:30;;;;;;;;;;;;;;;;;;;;;
2022/10/03 10:30:55;;;;;;;5.47;1.52;;;;;;;14.67;76.18;101297.22;5023628;28;20098;-89
2022/10/03 10:33:27;;;;;;;;;;;;;;;14.26;76.27;101297.13;5026028;28;20057;-91
2022/10/03 10:36:05;;;;;;;3.72;1.10;;;;;;;14.28;75.24;101300.34;5001577;28;19924;-88
2022/10/03 10:38:49;;;;;;;4.82;1.75;;;;;;;14.32;74.76;101299.34;5001152;28;20473;-87
2022/10/03 10:41:42;;;;;;;4.30;1.35;;;;;;;14.58;76.48;101306.63;5002004;28;20029;-87
2022/10/03 10:44:29;;;;;;;3.63;0.70;;;;;;;14.30;73.58;101300.81;5018982;28;20026;-91
2022/10/03 10:47:14;;;;;;;4.50;1.02;;;;;;;14.20;73.30;101293.78;5018453;28;20470;-90
2022/10/03 10:50:06;;;;;;;2.72;0.77;;;;;;;14.30;72.29;101298.09;5000886;28;20030;-89
2022/10/03 10:53:04;;;;;;;2.28;0.68;;;;;;;14.39;72.45;101299.63;5000895;28;20029;-90
2022/10/03 10:56:07;;;;;;;4.45;0.80;;;;;;;14.32;72.39;101298.53;4993281;28;20466;-89
2022/10/03 10:59:00;;;;;;;4.72;0.90;;;;;;;14.89;70.90;101292.53;5000860;28;20109;-87
2022/10/03 11:01:50;;;;;;;2.97;1.10;;;;;;;14.87;71.69;101294.81;5000621;28;20549;-88
2022/10/03 11:04:35;;;;;;;5.47;1.25;;;;;;;14.58;72.63;101292.91;5018160;28;20482;-90
2022/10/03 11:07:13;;;;;;;2.08;0.88;;;;;;;14.54;72.83;101295.53;5000734;28;20018;-93
2022/10/03 11:10:16;;;;;;;4.50;0.80;;;;;;;14.80;71.96;101289.88;5018599;28;20021;-89
2022/10/03 11:13:26;;;;;;;4.20;1.35;;;;;;;14.54;72.24;101283.75;5001117;28;20053;-91
2022/10/03 11:16:14;;;;;;;8.20;1.90;;;;;;;14.47;71.51;101284.31;4999312;28;20064;-89
2022/10/03 11:18:58;;;;;;;;;;;;;;;14.88;70.15;101280.75;5007605;28;20092;-92
2022/10/03 11:21:53;;;;;;;4.10;1.35;;;;;;;14.92;70.61;101283.63;5017489;28;19955;-89
2022/10/03 11:24:40;;;;;;;4.28;1.10;;;;;;;15.28;69.78;101278.31;5013641;28;20128;-86
2022/10/03 11:27:25;;;;;;;3.60;1.30;;;;;;;14.98;70.31;101285.84;5015805;28;20049;-91
2022/10/03 11:30:18;;;;;;;4.57;1.25;;;;;;;14.94;70.87;101281.34;5019002;28;20025;-90
2022/10/03 11:33:34;;;;;;;3.90;1.20;;;;;;;14.68;70.76;101282.38;5018749;28;20060;-93
2022/10/03 11:36:18;;;;;;;4.10;1.30;;;;;;;14.69;70.57;101273.00;4989155;28;20069;-89
2022/10/03 11:39:07;;;;;;;3.17;1.00;;;;;;;14.82;69.59;101273.88;5021589;28;20135;-87
2022/10/03 11:41:45;;;;;;;8.65;1.75;;;;;;;15.47;68.14;101274.25;5018320;28;20026;-85
2022/10/03 11:44:30;;;;;;;4.50;1.20;;;;;;;15.33;68.83;101272.59;5022815;28;20034;-88
2022/10/03 11:47:14;;;;;;;3.00;1.00;;;;;;;15.93;66.81;101268.38;5020278;28;20026;-86
2022/10/03 11:49:52;;;;;;;5.32;1.20;;;;;;;15.42;67.94;101277.19;5029722;28;20057;-86
2022/10/03 11:52:30;;;;;;;6.20;1.52;;;;;;;15.90;66.86;101276.50;5028120;28;20038;-84
2022/10/03 11:55:13;;;;;;;6.82;1.73;;;;;;;15.93;65.81;101278.56;5032243;28;20048;-90
2022/10/03 11:57:42;;;;;;;2.55;1.08;;;;;;;15.77;65.67;101270.19;5035259;28;20022;-86
2022/10/03 12:00:20;;;;;;;3.75;1.42;;;;;;;15.93;65.66;101273.88;5028284;28;20029;-85
2022/10/03 12:03:04;;;;;;;5.82;1.20;;;;;;;15.35;67.83;101273.06;5026794;28;20518;-85
2022/10/03 12:05:47;;;;;;;3.85;0.95;;;;;;;15.18;67.11;101270.50;5035486;28;20104;-85
2022/10/03 12:11:31;;;;;;;3.03;0.93;;;;;;;15.49;67.32;101260.97;5020000;28;20033;-86
2022/10/03 12:14:08;;;;;;;4.88;0.95;;;;;;;15.59;65.85;101263.31;5020384;28;20026;-88
2022/10/03 12:17:11;;;;;;;1.95;0.60;;;;;;;15.32;66.38;101270.19;5019892;28;20093;-85
2022/10/03 12:20:02;;;;;;;3.40;1.65;;;;;;;15.26;67.54;101271.53;5015148;28;20490;-85
2022/10/03 12:22:48;;;;;;;4.95;1.13;;;;;;;15.18;67.78;101267.75;5017719;28;20105;-86
2022/10/03 12:25:30;;;;;;;2.40;0.93;;;;;;;14.98;68.00;101268.59;5017814;28;20140;-88
2022/10/03 12:28:19;;;;;;;4.38;1.20;;;;;;;15.07;68.25;101263.00;5018491;28;20037;-88
2022/10/03 12:31:19;;;;;;;5.18;1.10;;;;;;;15.46;67.53;101256.97;5017784;28;20045;-87
2022/10/03 12:33:56;;;;;;;2.88;0.77;;;;;;;15.63;65.96;101250.53;5015449;28;20478;-89
2022/10/03 12:36:35;;;;;;;5.60;1.13;;;;;;;15.34;65.70;101254.19;5015346;28;20084;-86
2022/10/03 12:39:09;;;;;;;4.32;0.65;;;;;;;15.42;65.50;101252.50;5014259;28;20029;-92
2022/10/03 12:41:44;;;;;;;2.28;0.60;;;;;;;15.57;65.01;101251.84;5013125;28;20029;-87
2022/10/03 12:44:47;;;;;;;5.97;0.90;;;;;;;15.53;65.69;101248.97;5016101;28;20018;-87
2022/10/03 12:47:31;;;;;;;4.13;0.93;;;;;;;15.44;66.43;101250.19;5012262;28;20017;-82
2022/10/03 12:50:21;;;;;;;5.00;0.90;;;;;;;15.32;65.04;101246.31;5012139;28;20026;-83
2022/10/03 12:53:22;;;;;;;2.95;1.13;;;;;;;15.48;64.46;101246.47;5012198;28;20054;-84
2022/10/03 12:56:07;;;;;;;3.10;0.70;;;;;;;16.18;63.64;101257.41;5013219;28;20505;-85
2022/10/03 12:58:41;;;;;;;1.90;0.65;;;;;;;16.76;60.77;101249.72;5012001;28;20533;-85
2022/10/03 13:01:35;;;;;;;3.03;0.82;;;;;;;17.73;57.02;101252.00;5013406;28;20517;-84
2022/10/03 13:04:17;;;;;;;4.05;0.77;;;;;;;17.84;55.44;101251.47;5011923;28;20030;-86
2022/10/03 13:07:35;;;;;;;2.95;0.90;;;;;;;18.22;54.96;101248.84;5013785;28;20022;-84
2022/10/03 13:10:19;;;;;;;;;;;;;;;18.39;54.30;101238.56;4936766;29;20031;-82
2022/10/03 13:13:07;;;;;;;2.70;0.90;;;;;;;18.82;54.08;101237.56;5012921;28;19909;-83
2022/10/03 13:16:07;;;;;;;2.67;0.85;;;;;;;18.55;54.12;101240.13;5000394;28;20060;-82
2022/10/03 13:19:08;;;;;;;1.50;0.68;;;;;;;18.32;53.32;101231.75;5011171;28;20068;-83